TimePDT,TemperatureF,Dew PointF,Humidity,Sea Level PressureIn,VisibilityMPH,Wind Direction,Wind SpeedMPH,Gust SpeedMPH,PrecipitationIn,Events,Conditions,WindDirDegrees,DateUTC
12:58 AM,35.8,18.5,50,30.37,10.0,SSW,10.4,-,N/A,,Clear,210,2013-04-23 07:58:00
1:58 AM,34.9,17.6,49,30.38,10.0,SSW,11.5,-,N/A,,Clear,210,2013-04-23 08:58:00
2:12 AM,33.8,17.6,52,30.31,10.0,SSW,9.2,-,N/A,,Clear,210,2013-04-23 09:12:00
2:46 AM,33.8,17.6,52,30.30,10.0,SSW,9.2,-,N/A,,Clear,210,2013-04-23 09:46:00
2:58 AM,33.6,18.0,53,30.35,10.0,SSW,9.2,-,0.00,,Clear,200,2013-04-23 09:58:00
3:20 AM,32.0,17.6,55,30.29,10.0,SSW,5.8,-,N/A,,Clear,200,2013-04-23 10:20:00
3:29 AM,32.0,17.6,55,30.29,10.0,SSW,2.3,-,N/A,,Clear,210,2013-04-23 10:29:00
3:46 AM,32.0,17.6,55,30.29,10.0,SSW,4.6,-,N/A,,Clear,200,2013-04-23 10:46:00
3:58 AM,32.4,17.8,55,30.33,10.0,SSW,3.5,-,0.00,,Clear,200,2013-04-23 10:58:00
4:04 AM,32.0,17.6,55,30.28,10.0,SSW,4.6,-,N/A,,Clear,210,2013-04-23 11:04:00
4:44 AM,32.0,15.8,51,30.27,10.0,SSE,6.9,-,N/A,,Clear,150,2013-04-23 11:44:00
4:58 AM,34.0,16.2,48,30.32,10.0,SSE,5.8,-,0.00,,Clear,160,2013-04-23 11:58:00
4:59 AM,33.8,15.8,48,30.27,10.0,South,6.9,-,N/A,,Clear,170,2013-04-23 11:59:00
5:58 AM,29.1,18.7,65,30.31,10.0,SSE,2.3,-,0.00,,Clear,150,2013-04-23 12:58:00
6:53 AM,32.0,21.2,64,30.26,10.0,SE,4.6,-,N/A,,Partly Cloudy,130,2013-04-23 13:53:00
6:58 AM,32.0,21.2,64,30.31,10.0,SE,3.5,-,0.00,,Partly Cloudy,130,2013-04-23 13:58:00
7:07 AM,32.0,21.2,64,30.26,10.0,East,3.5,-,N/A,,Partly Cloudy,90,2013-04-23 14:07:00
7:58 AM,34.3,21.4,59,30.26,10.0,East,3.5,-,0.00,,Scattered Clouds,90,2013-04-23 14:58:00
8:58 AM,37.6,21.6,52,30.26,10.0,SE,5.8,-,N/A,,Scattered Clouds,140,2013-04-23 15:58:00
9:58 AM,40.3,23.9,52,30.32,10.0,South,5.8,-,N/A,,Mostly Cloudy,180,2013-04-23 16:58:00
10:58 AM,43.9,25.7,49,30.31,10.0,South,8.1,-,N/A,,Scattered Clouds,170,2013-04-23 17:58:00
11:58 AM,48.6,28.0,45,30.31,10.0,Variable,1.2,-,N/A,,Scattered Clouds,0,2013-04-23 18:58:00
12:58 PM,52.3,26.4,37,30.28,10.0,Calm,Calm,-,N/A,,Scattered Clouds,0,2013-04-23 19:58:00
1:58 PM,55.2,25.3,32,30.25,10.0,West,8.1,-,N/A,,Mostly Cloudy,260,2013-04-23 20:58:00
2:58 PM,54.0,21.0,28,30.26,10.0,WNW,11.5,-,N/A,,Overcast,300,2013-04-23 21:58:00
3:55 PM,55.4,22.1,27,30.24,10.0,SW,6.9,-,N/A,,Mostly Cloudy,230,2013-04-23 22:55:00
4:55 PM,53.1,23.7,32,30.23,10.0,WSW,5.8,-,N/A,,Mostly Cloudy,250,2013-04-23 23:55:00
5:55 PM,54.3,23.4,30,30.24,10.0,West,10.4,-,N/A,,Overcast,280,2013-04-24 00:55:00
6:55 PM,53.6,26.6,35,30.20,10.0,NW,4.6,-,N/A,,Overcast,320,2013-04-24 01:55:00
7:58 PM,50.2,25.9,39,30.25,10.0,WNW,1.2,-,N/A,,Clear,300,2013-04-24 02:58:00
8:58 PM,47.3,25.3,42,30.26,10.0,West,4.6,-,N/A,,Clear,270,2013-04-24 03:58:00
9:58 PM,41.2,27.3,58,30.27,10.0,West,6.9,-,N/A,,Clear,260,2013-04-24 04:58:00
10:38 PM,39.2,26.6,61,30.22,10.0,WSW,5.8,-,N/A,,Clear,240,2013-04-24 05:38:00
10:48 PM,39.2,26.6,61,30.22,10.0,WSW,5.8,-,N/A,,Clear,240,2013-04-24 05:48:00
10:58 PM,37.9,27.0,65,30.27,10.0,SW,5.8,-,0.00,,Clear,230,2013-04-24 05:58:00
11:58 PM,37.6,25.9,63,30.27,10.0,West,5.8,-,N/A,,Clear,270,2013-04-24 06:58:00